地図

経路データ

SID SEASON NUMBER BASIN SUBBASIN NAME ISO_TIME NATURE LAT LON WMO_WIND WMO_PRES WMO_AGENCY TRACK_TYPE DIST2LAND LANDFALL IFLAG USA_AGENCY USA_ATCF_ID USA_LAT USA_LON USA_RECORD USA_STATUS USA_WIND USA_PRES USA_SSHS USA_R34_NE USA_R34_SE USA_R34_SW USA_R34_NW USA_R50_NE USA_R50_SE USA_R50_SW USA_R50_NW USA_R64_NE USA_R64_SE USA_R64_SW USA_R64_NW USA_POCI USA_ROCI USA_RMW USA_EYE TOKYO_LAT TOKYO_LON TOKYO_GRADE TOKYO_WIND TOKYO_PRES TOKYO_R50_DIR TOKYO_R50_LONG TOKYO_R50_SHORT TOKYO_R30_DIR TOKYO_R30_LONG TOKYO_R30_SHORT TOKYO_LAND CMA_LAT CMA_LON CMA_CAT CMA_WIND CMA_PRES HKO_LAT HKO_LON HKO_CAT HKO_WIND HKO_PRES NEWDELHI_LAT NEWDELHI_LON NEWDELHI_GRADE NEWDELHI_WIND NEWDELHI_PRES NEWDELHI_CI NEWDELHI_DP NEWDELHI_POCI REUNION_LAT REUNION_LON REUNION_TYPE REUNION_WIND REUNION_PRES REUNION_TNUM REUNION_CI REUNION_RMW REUNION_R34_NE REUNION_R34_SE REUNION_R34_SW REUNION_R34_NW REUNION_R50_NE REUNION_R50_SE REUNION_R50_SW REUNION_R50_NW REUNION_R64_NE REUNION_R64_SE REUNION_R64_SW REUNION_R64_NW BOM_LAT BOM_LON BOM_TYPE BOM_WIND BOM_PRES BOM_TNUM BOM_CI BOM_RMW BOM_R34_NE BOM_R34_SE BOM_R34_SW BOM_R34_NW BOM_R50_NE BOM_R50_SE BOM_R50_SW BOM_R50_NW BOM_R64_NE BOM_R64_SE BOM_R64_SW BOM_R64_NW BOM_ROCI BOM_POCI BOM_EYE BOM_POS_METHOD BOM_PRES_METHOD NADI_LAT NADI_LON NADI_CAT NADI_WIND NADI_PRES WELLINGTON_LAT WELLINGTON_LON WELLINGTON_WIND WELLINGTON_PRES DS824_LAT DS824_LON DS824_STAGE DS824_WIND DS824_PRES TD9636_LAT TD9636_LON TD9636_STAGE TD9636_WIND TD9636_PRES TD9635_LAT TD9635_LON TD9635_WIND TD9635_PRES TD9635_ROCI NEUMANN_LAT NEUMANN_LON NEUMANN_CLASS NEUMANN_WIND NEUMANN_PRES MLC_LAT MLC_LON MLC_CLASS MLC_WIND MLC_PRES USA_GUST BOM_GUST BOM_GUST_PER REUNION_GUST REUNION_GUST_PER USA_SEAHGT USA_SEARAD_NE USA_SEARAD_SE USA_SEARAD_SW USA_SEARAD_NW STORM_SPEED STORM_DIR
1994224N16240 1994 66 EP MM NOT_NAMED 1994-08-12 00:00:00 TS 16.3000 -119.600 30 hurdat_epa main 1221 1221 O_____________ hurdat_epa EP121994 16.3000 -119.600 TD 30 -1 4 284
1994224N16240 1994 66 EP MM NOT_NAMED 1994-08-12 03:00:00 TS 16.3451 -119.785 main 1234 1225 P_____________ EP121994 16.3451 -119.785 TD 30 -1 3 289
1994224N16240 1994 66 EP MM NOT_NAMED 1994-08-12 06:00:00 TS 16.4000 -119.900 30 hurdat_epa main 1232 1223 O_____________ hurdat_epa EP121994 16.4000 -119.900 TD 30 -1 2 322
1994224N16240 1994 66 EP MM NOT_NAMED 1994-08-12 09:00:00 TS 16.4775 -119.895 main 1223 1208 P_____________ EP121994 16.4775 -119.895 TD 30 -1 2 27
1994224N16240 1994 66 EP MM NOT_NAMED 1994-08-12 12:00:00 TS 16.6000 -119.800 30 hurdat_epa main 1208 1184 O_____________ hurdat_epa EP121994 16.6000 -119.800 TD 30 -1 4 37
1994224N16240 1994 66 EP MM NOT_NAMED 1994-08-12 15:00:00 TS 16.7700 -119.665 main 1184 1153 P_____________ EP121994 16.7700 -119.665 TD 30 -1 5 36
1994224N16240 1994 66 EP MM NOT_NAMED 1994-08-12 18:00:00 TS 17.0000 -119.500 30 hurdat_epa main 1153 1114 O_____________ hurdat_epa EP121994 17.0000 -119.500 TD 30 -1 6 31
1994224N16240 1994 66 EP MM NOT_NAMED 1994-08-12 21:00:00 TS 17.2925 -119.335 main 1114 1082 P_____________ EP121994 17.2925 -119.335 TD 30 -1 7 25
1994224N16240 1994 66 EP MM NOT_NAMED 1994-08-13 00:00:00 TS 17.6000 -119.200 30 hurdat_epa main 1082 1065 O_____________ hurdat_epa EP121994 17.6000 -119.200 TD 30 -1 6 17
1994224N16240 1994 66 EP MM NOT_NAMED 1994-08-13 03:00:00 TS 17.8575 -119.150 main 1050 1033 P_____________ EP121994 17.8575 -119.150 TD 30 -1 5 11
1994224N16240 1994 66 EP MM NOT_NAMED 1994-08-13 06:00:00 TS 18.1000 -119.100 30 hurdat_epa main 1033 1010 O_____________ hurdat_epa EP121994 18.1000 -119.100 TD 30 -1 5 17
1994224N16240 1994 66 EP MM NOT_NAMED 1994-08-13 09:00:00 TS 18.3349 -118.995 main 1010 971 P_____________ EP121994 18.3349 -118.995 TD 30 -1 6 30
1994224N16240 1994 66 EP MM NOT_NAMED 1994-08-13 12:00:00 TS 18.6000 -118.800 30 hurdat_epa main 971 925 O_____________ hurdat_epa EP121994 18.6000 -118.800 TD 30 -1 8 39
1994224N16240 1994 66 EP MM NOT_NAMED 1994-08-13 15:00:00 TS 18.9275 -118.495 main 925 863 P_____________ EP121994 18.9275 -118.495 TD 30 -1 10 43
1994224N16240 1994 66 EP MM NOT_NAMED 1994-08-13 18:00:00 TS 19.3000 -118.100 30 hurdat_epa main 863 810 O_____________ hurdat_epa EP121994 19.3000 -118.100 TD 30 -1 11 49
1994224N16240 1994 66 EP MM NOT_NAMED 1994-08-13 21:00:00 TS 19.6402 -117.627 main 803 734 P_____________ EP121994 19.6402 -117.627 TD 30 -1 12 47
1994224N16240 1994 66 EP MM NOT_NAMED 1994-08-14 00:00:00 TS 20.1000 -117.200 30 hurdat_epa main 734 657 O_____________ hurdat_epa EP121994 20.1000 -117.200 TD 30 -1 13 30
1994224N16240 1994 66 EP MM NOT_NAMED 1994-08-14 03:00:00 TS 20.8049 -116.918 main 657 590 P_____________ EP121994 20.8049 -116.918 TD 30 -1 16 14
1994224N16240 1994 66 EP MM NOT_NAMED 1994-08-14 06:00:00 TS 21.6000 -116.800 30 hurdat_epa main 590 545 O_____________ hurdat_epa EP121994 21.6000 -116.800 TD 30 -1 15 4
1994224N16240 1994 66 EP MM NOT_NAMED 1994-08-14 09:00:00 TS 22.3222 -116.803 main 545 522 P_____________ EP121994 22.3222 -116.803 TD 30 -1 14 352
1994224N16240 1994 66 EP MM NOT_NAMED 1994-08-14 12:00:00 TS 23.0000 -117.000 30 hurdat_epa main 527 496 O_____________ hurdat_epa EP121994 23.0000 -117.000 TD 30 -1 14 338
1994224N16240 1994 66 EP MM NOT_NAMED 1994-08-14 15:00:00 TS 23.6374 -117.367 main 502 480 P_____________ EP121994 23.6374 -117.367 TD 30 -1 15 326
1994224N16240 1994 66 EP MM NOT_NAMED 1994-08-14 18:00:00 TS 24.2000 -117.900 30 hurdat_epa main 484 474 O_____________ hurdat_epa EP121994 24.2000 -117.900 TD 30 -1 15 317
1994224N16240 1994 66 EP MM NOT_NAMED 1994-08-14 21:00:00 TS 24.7244 -118.475 main 483 475 P_____________ EP121994 24.7244 -118.475 TD 27 -1 15 307
1994224N16240 1994 66 EP MM NOT_NAMED 1994-08-15 00:00:00 TS 25.1000 -119.200 25 hurdat_epa main 508 508 O_____________ hurdat_epa EP121994 25.1000 -119.200 TD 25 -1 16 290
1994224N16240 1994 66 EP MM NOT_NAMED 1994-08-15 03:00:00 TS 25.2525 -120.099 main 573 573 P_____________ EP121994 25.2525 -120.099 TD 25 -1 17 277
1994224N16240 1994 66 EP MM NOT_NAMED 1994-08-15 06:00:00 TS 25.3000 -121.100 25 hurdat_epa main 662 662 O_____________ hurdat_epa EP121994 25.3000 -121.100 TD 25 -1 18 274
1994224N16240 1994 66 EP MM NOT_NAMED 1994-08-15 09:00:00 TS 25.3835 -122.104 main 750 750 P_____________ EP121994 25.3835 -122.104 TD 25 -1 18 276
1994224N16240 1994 66 EP MM NOT_NAMED 1994-08-15 12:00:00 TS 25.5000 -123.100 25 hurdat_epa main 841 O_____________ hurdat_epa EP121994 25.5000 -123.100 TD 25 -1 18 277

IBTrACS Databaseについて

本データベースは、米国NOAAが公開する1842年以降の世界の熱帯低気圧のベストトラックデータアーカイブInternational Best Track Archive for Climate Stewardship (IBTrACS)を、ウェブで閲覧しやすい形式に変換したものです。

最終更新日:2021-10-08